This demonstration page uses our WeatherBlox Daily Observations layout. Learn more.

36.19886, -115.1175

Hourly Observations for May 11, 2018

Temp ( °F °C ) Dew Point ( °F °C ) Humidity (%) Winds ( mph kmh ) Pressure ( in mb ) Visibility ( mi km ) Precip ( " mm )
12:53 am 00:53 Clear 81 27.2 30 -1.1 16 16 S 17 28 29.56 1001 10 16.09344 0 0
1:53 am 01:53 Clear 79 26.1 26 -3.3 14 14 SW 8 13 29.56 1001 10 16.09344 0 0
2:53 am 02:53 Clear 76 24.4 29 -1.7 18 18 SSW 9 15 29.56 1001 10 16.09344 0 0
3:53 am 03:53 Clear 74 23.3 28 -2.2 18 18 SSW 8 13 29.56 1001 10 16.09344 0 0
4:53 am 04:53 Clear 73 22.8 27 -2.8 18 18 S 3 6 29.56 1001 10 16.09344 0 0
5:53 am 05:53 Sunny 70 21.1 27 -2.8 20 20 SE 5 7 29.56 1001 10 16.09344 0 0
6:53 am 06:53 Sunny 72 22.2 25 -3.9 17 17 SSE 3 6 29.56 1001 10 16.09344 0 0
7:53 am 07:53 Sunny 75 23.9 26 -3.3 16 16 N 3 6 29.56 1001 10 16.09344 0 0
8:53 am 08:53 Sunny 76 24.4 26 -3.3 16 16 SSE 3 6 29.56 1001 10 16.09344 0 0
9:53 am 09:53 Sunny 81 27.2 24 -4.4 12 12 SSE 10 17 29.56 1001 10 16.09344 0 0
10:53 am 10:53 Sunny 84 28.9 25 -3.9 11 11 SSE 12 19 29.53 1000 10 16.09344 0 0
11:53 am 11:53 Sunny 89 31.7 27 -2.8 11 11 S 20 31 32.45 1099 10 16.09344 0 0
12:53 pm 12:53 Sunny 89 31.7 30 -1.1 12 12 SSW 18 30 32.42 1098 10 16.09344 0 0
1:41 pm 13:41 Sunny 90 32.2 29 -1.7 11 11 SW 20 31 29.32 993 10 16.09344 0 0
1:53 pm 13:53 Sunny 91 32.8 29 -1.7 11 11 SW 20 31 32.39 1097 10 16.09344 0 0
2:53 pm 14:53 Sunny 90 32.2 26 -3.3 10 10 SW 21 33 32.39 1097 10 16.09344 0 0
3:53 pm 15:53 Sunny 91 32.8 23 -5 8 8 SW 18 30 32.36 1096 10 16.09344 0 0
4:53 pm 16:53 Sunny 91 32.8 27 -2.8 10 10 SW 21 33 32.36 1096 10 16.09344 0 0
5:53 pm 17:53 Sunny 89 31.7 27 -2.8 11 11 SW 20 31 32.36 1096 10 16.09344 0 0
6:53 pm 18:53 Sunny 86 30 29 -1.7 13 13 SW 18 30 32.36 1096 10 16.09344 0 0
7:53 pm 19:53 Clear 83 28.3 33 0.6 17 17 SW 22 35 32.36 1096 10 16.09344 0 0
8:34 pm 20:34 Clear 80 26.7 28 -2.2 15 15 NW 20 31 29.38 995 10 16.09344 0 0
8:43 pm 20:43 Clear 79 26.1 29 -1.7 16 16 NW 22 35 29.41 996 10 16.09344 0 0
8:53 pm 20:53 Clear 78 25.6 29 -1.7 16 16 NW 20 31 32.45 1099 10 16.09344 0 0
9:53 pm 21:53 Clear 73 22.8 31 -0.6 21 21 NW 31 50 29.56 1001 10 16.09344 0 0
10:53 pm 22:53 Clear 68 20 36 2.2 31 31 NNW 23 37 29.59 1002 10 16.09344 0 0
11:53 pm 23:53 Clear 65 18.3 37 2.8 36 36 NNW 31 50 29.62 1003 10 16.09344 0 0

Powered by AerisWeather